createdAt,value
2019-02-16T00:01:45.132Z,14.70
2019-02-16T00:04:12.181Z,16.40
2019-02-16T00:06:39.270Z,18.00
2019-02-16T00:09:06.345Z,15.90
2019-02-16T00:11:33.387Z,17.57
2019-02-16T00:14:00.439Z,17.55
2019-02-16T00:16:27.476Z,18.20
2019-02-16T00:18:54.543Z,14.40
2019-02-16T00:21:21.591Z,14.40
2019-02-16T00:23:48.615Z,13.83
2019-02-16T00:26:15.692Z,12.35
2019-02-16T00:28:42.716Z,10.78
2019-02-16T00:31:09.750Z,12.37
2019-02-16T00:33:36.808Z,10.72
2019-02-16T00:36:03.958Z,10.32
2019-02-16T00:38:31.022Z,10.15
2019-02-16T00:40:58.059Z,9.88
2019-02-16T00:43:25.121Z,10.82
2019-02-16T00:45:52.144Z,12.65
2019-02-16T00:48:19.207Z,12.58
2019-02-16T00:50:46.235Z,13.50
2019-02-16T00:53:13.319Z,15.38
2019-02-16T00:55:40.384Z,15.78
2019-02-16T00:58:07.431Z,13.58
2019-02-16T01:00:34.477Z,14.83
2019-02-16T01:03:01.519Z,15.03
2019-02-16T01:05:28.585Z,15.70
2019-02-16T01:07:55.594Z,16.45
2019-02-16T01:10:22.631Z,15.70
2019-02-16T01:12:49.658Z,18.50
2019-02-16T01:15:16.696Z,17.77
2019-02-16T01:17:43.729Z,18.40
2019-02-16T01:20:11.079Z,18.27
2019-02-16T01:22:38.207Z,17.70
2019-02-16T01:25:05.313Z,16.17
2019-02-16T01:27:32.373Z,16.30
2019-02-16T01:29:59.437Z,12.25
2019-02-16T01:32:26.495Z,8.50
2019-02-16T01:34:53.517Z,10.30
2019-02-16T01:37:20.663Z,9.90
2019-02-16T01:39:47.695Z,7.97
2019-02-16T01:42:14.723Z,7.92
2019-02-16T01:44:41.757Z,7.50
2019-02-16T01:47:08.774Z,8.25
2019-02-16T01:49:35.839Z,8.98
2019-02-16T01:52:02.902Z,8.18
2019-02-16T01:54:29.930Z,8.90
2019-02-16T01:56:57.018Z,11.03
2019-02-16T01:59:24.051Z,10.88
2019-02-16T02:01:51.118Z,13.80
2019-02-16T02:04:18.152Z,12.33
2019-02-16T02:06:45.218Z,10.93
2019-02-16T02:09:12.417Z,14.03
2019-02-16T02:11:39.501Z,12.98
2019-02-16T02:14:06.572Z,12.75
2019-02-16T02:16:33.602Z,14.07
2019-02-16T02:19:00.657Z,15.45
2019-02-16T02:21:27.720Z,17.57
2019-02-16T02:23:54.792Z,17.92
2019-02-16T02:26:21.834Z,21.30
2019-02-16T02:28:48.890Z,20.48
2019-02-16T02:31:15.911Z,21.62
2019-02-16T02:33:42.945Z,19.75
2019-02-16T02:36:10.005Z,18.80
2019-02-16T02:38:37.039Z,18.45
2019-02-16T02:41:04.093Z,20.80
2019-02-16T02:43:31.131Z,19.80
2019-02-16T02:45:58.174Z,20.23
2019-02-16T02:48:25.232Z,18.65
2019-02-16T02:50:52.251Z,19.25
2019-02-16T02:53:19.307Z,20.17
2019-02-16T02:55:46.387Z,19.57
2019-02-16T02:58:13.453Z,20.68
2019-02-16T03:00:40.502Z,21.20
2019-02-16T03:03:07.544Z,22.62
2019-02-16T03:05:34.572Z,20.60
2019-02-16T03:08:01.629Z,20.68
2019-02-16T03:10:28.678Z,23.90
2019-02-16T03:12:55.720Z,23.98
2019-02-16T03:15:22.781Z,21.65
2019-02-16T03:17:49.824Z,22.02
2019-02-16T03:20:16.863Z,22.48
2019-02-16T03:23:17.907Z,22.60
2019-02-16T03:25:48.961Z,20.72
2019-02-16T03:28:33.748Z,17.52
2019-02-16T03:31:54.652Z,16.52
2019-02-16T03:34:26.111Z,16.35
2019-02-16T03:37:35.402Z,12.78
2019-02-16T03:40:02.481Z,12.58
2019-02-16T03:42:29.541Z,12.33
2019-02-16T03:44:56.561Z,11.38
2019-02-16T03:47:23.616Z,9.93
2019-02-16T03:49:50.670Z,11.08
2019-02-16T03:52:17.704Z,12.70
2019-02-16T03:54:44.810Z,19.00
2019-02-16T03:57:11.843Z,23.50
2019-02-16T03:59:38.889Z,23.05
2019-02-16T04:02:05.933Z,26.52
2019-02-16T04:04:33.000Z,25.40
2019-02-16T04:07:00.098Z,24.02
2019-02-16T04:09:27.136Z,22.22
2019-02-16T04:11:54.180Z,22.17
2019-02-16T04:14:21.242Z,20.12
2019-02-16T04:16:48.288Z,20.32
2019-02-16T04:19:15.353Z,20.02
2019-02-16T04:21:42.390Z,20.68
2019-02-16T04:24:09.415Z,18.12
2019-02-16T04:26:36.467Z,18.73
2019-02-16T04:29:03.500Z,19.45
2019-02-16T04:31:30.552Z,17.23
2019-02-16T04:33:57.588Z,16.30
2019-02-16T04:36:24.643Z,16.23
2019-02-16T04:38:51.684Z,16.55
2019-02-16T04:41:18.738Z,15.85
2019-02-16T04:43:45.788Z,15.55
2019-02-16T04:46:12.833Z,16.42
2019-02-16T04:48:39.872Z,15.60
2019-02-16T04:51:06.917Z,16.55
2019-02-16T04:53:33.956Z,16.65
2019-02-16T04:56:00.991Z,17.57
2019-02-16T04:58:28.055Z,20.17
2019-02-16T05:00:55.095Z,20.00
2019-02-16T05:03:22.143Z,20.40
2019-02-16T05:05:49.183Z,19.55
2019-02-16T05:08:16.291Z,19.07
2019-02-16T05:10:43.355Z,19.00
2019-02-16T05:13:10.397Z,17.92
2019-02-16T05:15:37.443Z,17.90
2019-02-16T05:18:04.493Z,19.52
2019-02-16T05:20:31.505Z,18.25
2019-02-16T05:22:58.563Z,20.02
2019-02-16T05:25:25.621Z,20.27
2019-02-16T05:27:52.738Z,19.75
2019-02-16T05:30:19.937Z,19.25
2019-02-16T05:32:47.080Z,16.23
2019-02-16T05:35:14.205Z,16.15
2019-02-16T05:37:41.261Z,13.83
2019-02-16T05:40:09.339Z,14.50
2019-02-16T05:42:36.389Z,14.55
2019-02-16T05:45:03.585Z,17.27
2019-02-16T05:47:30.668Z,19.45
2019-02-16T05:49:57.722Z,21.65
2019-02-16T05:52:24.777Z,21.45
2019-02-16T05:54:51.849Z,20.62
2019-02-16T05:57:18.907Z,21.33
2019-02-16T05:59:45.931Z,21.10
2019-02-16T06:02:12.983Z,20.32
2019-02-16T06:04:40.282Z,22.22
2019-02-16T06:07:07.323Z,19.75
2019-02-16T06:09:34.395Z,23.35
2019-02-16T06:12:01.449Z,19.52
2019-02-16T06:14:28.514Z,22.05
2019-02-16T06:16:55.557Z,20.80
2019-02-16T06:19:22.617Z,23.65
2019-02-16T06:21:49.669Z,19.15
2019-02-16T06:24:16.695Z,18.62
2019-02-16T06:26:43.750Z,19.35
2019-02-16T06:29:10.812Z,19.55
2019-02-16T06:31:37.852Z,20.10
2019-02-16T06:34:04.880Z,23.05
2019-02-16T06:36:39.502Z,21.45
2019-02-16T06:39:06.564Z,18.67
2019-02-16T06:41:33.632Z,17.75
2019-02-16T06:44:00.675Z,26.52
2019-02-16T06:46:27.714Z,18.07
2019-02-16T06:48:54.750Z,17.45
2019-02-16T06:51:21.804Z,16.67
2019-02-16T06:53:48.854Z,15.15
2019-02-16T06:56:35.494Z,18.12
2019-02-16T06:59:02.531Z,17.92
2019-02-16T07:01:29.610Z,15.78
2019-02-16T07:03:56.650Z,16.45
2019-02-16T07:06:23.696Z,18.55
2019-02-16T07:08:50.757Z,16.57
2019-02-16T07:11:17.814Z,17.85
2019-02-16T07:13:44.852Z,15.25
2019-02-16T07:16:30.593Z,16.80
2019-02-16T07:19:01.603Z,14.73
2019-02-16T07:21:28.643Z,15.15
2019-02-16T07:23:55.701Z,14.93
2019-02-16T07:26:22.727Z,13.45
2019-02-16T07:28:49.789Z,13.70
2019-02-16T07:31:16.857Z,14.13
2019-02-16T07:33:43.887Z,15.08
2019-02-16T07:36:10.937Z,14.55
2019-02-16T07:38:38.010Z,15.75
2019-02-16T07:41:05.048Z,16.00
2019-02-16T07:43:42.629Z,16.70
2019-02-16T07:46:25.731Z,15.08
2019-02-16T07:48:59.263Z,14.93
2019-02-16T07:51:53.416Z,13.98
2019-02-16T07:54:35.189Z,12.95
2019-02-16T07:57:09.901Z,14.47
2019-02-16T07:59:56.538Z,14.58
2019-02-16T08:03:01.043Z,13.50
2019-02-16T08:05:53.560Z,12.23
2019-02-16T08:08:52.313Z,12.95
2019-02-16T08:11:44.011Z,12.60
2019-02-16T08:14:26.292Z,11.93
2019-02-16T08:17:12.933Z,13.00
2019-02-16T08:20:03.747Z,13.93
2019-02-16T08:23:02.672Z,14.47
2019-02-16T08:25:45.586Z,13.95
2019-02-16T08:28:26.464Z,14.00
2019-02-16T08:31:15.990Z,14.30
2019-02-16T08:34:01.298Z,13.45
2019-02-16T08:36:49.111Z,14.70
2019-02-16T08:39:34.292Z,14.23
2019-02-16T08:42:20.990Z,14.13
2019-02-16T08:45:06.548Z,13.53
2019-02-16T08:47:53.227Z,13.70
2019-02-16T08:50:38.430Z,13.60
2019-02-16T08:53:17.896Z,13.10
2019-02-16T08:55:54.179Z,13.13
2019-02-16T08:58:49.719Z,13.53
2019-02-16T09:01:35.033Z,13.48
2019-02-16T09:04:20.135Z,13.88
2019-02-16T09:07:09.831Z,13.98
2019-02-16T09:09:46.082Z,14.15
2019-02-16T09:12:35.502Z,13.62
2019-02-16T09:15:11.814Z,14.55
2019-02-16T09:17:56.462Z,13.22
2019-02-16T09:20:43.166Z,14.10
2019-02-16T09:23:28.280Z,13.45
2019-02-16T09:26:21.708Z,12.78
2019-02-16T09:28:59.231Z,12.07
2019-02-16T09:31:51.499Z,11.85
2019-02-16T09:34:40.927Z,13.93
2019-02-16T09:37:14.144Z,11.95
2019-02-16T09:39:51.156Z,11.55
2019-02-16T09:42:40.366Z,12.30
2019-02-16T09:45:18.779Z,11.35
2019-02-16T09:48:11.365Z,12.65
2019-02-16T09:50:44.628Z,13.68
2019-02-16T09:53:37.309Z,11.55
2019-02-16T09:56:14.449Z,12.63
2019-02-16T09:58:50.225Z,12.18
2019-02-16T10:01:24.638Z,12.37
2019-02-16T10:04:14.486Z,13.70
2019-02-16T10:06:59.859Z,12.10
2019-02-16T10:09:39.941Z,12.65
2019-02-16T10:12:26.611Z,13.18
2019-02-16T10:15:11.926Z,11.90
2019-02-16T10:17:57.563Z,10.05
2019-02-16T10:20:43.071Z,11.33
2019-02-16T10:23:28.823Z,10.28
2019-02-16T10:26:18.557Z,10.20
2019-02-16T10:28:53.177Z,11.10
2019-02-16T10:31:28.858Z,8.03
2019-02-16T10:34:13.854Z,8.05
2019-02-16T10:36:50.781Z,7.37
2019-02-16T10:39:36.603Z,7.85
2019-02-16T10:42:23.239Z,6.17
2019-02-16T10:44:58.581Z,8.15
2019-02-16T10:47:45.218Z,7.53
2019-02-16T10:50:31.869Z,7.10
2019-02-16T10:53:18.543Z,6.35
2019-02-16T10:56:05.184Z,6.70
2019-02-16T10:58:51.817Z,6.60
2019-02-16T11:01:38.489Z,6.45
2019-02-16T11:04:25.176Z,5.83
2019-02-16T11:07:11.789Z,6.50
2019-02-16T11:09:58.466Z,6.33
2019-02-16T11:12:45.118Z,5.97
2019-02-16T11:15:32.805Z,7.03
2019-02-16T11:18:19.494Z,6.30
2019-02-16T11:20:55.986Z,6.40
2019-02-16T11:23:42.625Z,6.10
2019-02-16T11:26:29.263Z,6.60
2019-02-16T11:29:11.571Z,5.47
2019-02-16T11:31:58.178Z,5.83
2019-02-16T11:34:44.804Z,6.07
2019-02-16T11:37:31.447Z,6.33
2019-02-16T11:40:04.982Z,5.93
2019-02-16T11:42:42.050Z,5.87
2019-02-16T11:45:28.674Z,7.40
2019-02-16T11:48:04.512Z,6.20
2019-02-16T11:50:38.019Z,5.57
2019-02-16T11:53:24.638Z,5.47
2019-02-16T11:56:11.249Z,4.87
2019-02-16T11:58:57.902Z,5.60
2019-02-16T12:01:44.571Z,5.27
2019-02-16T12:04:31.223Z,6.13
2019-02-16T12:07:17.842Z,6.20
2019-02-16T12:10:04.488Z,6.57
2019-02-16T12:12:51.121Z,6.30
2019-02-16T12:15:37.768Z,6.90
2019-02-16T12:18:24.510Z,6.30
2019-02-16T12:21:11.176Z,8.10
2019-02-16T12:23:57.796Z,6.13
2019-02-16T12:26:44.480Z,6.20
2019-02-16T12:29:31.112Z,6.70
2019-02-16T12:32:17.782Z,6.70
2019-02-16T12:35:06.092Z,6.37
2019-02-16T12:38:05.224Z,6.73
2019-02-16T12:41:04.338Z,5.90
2019-02-16T12:44:04.140Z,7.20
2019-02-16T12:46:50.762Z,5.90
2019-02-16T12:49:56.893Z,6.30
2019-02-16T12:52:43.541Z,6.50
2019-02-16T12:55:49.667Z,6.30
2019-02-16T12:58:36.300Z,6.13
2019-02-16T13:01:42.441Z,5.70
2019-02-16T13:04:29.080Z,6.30
2019-02-16T13:07:35.227Z,6.00
2019-02-16T13:10:21.862Z,6.60
2019-02-16T13:13:08.487Z,6.40
2019-02-16T13:15:55.155Z,6.50
2019-02-16T13:18:42.287Z,7.07
2019-02-16T13:21:36.803Z,6.40
2019-02-16T13:24:08.673Z,5.50
2019-02-16T13:26:55.287Z,7.07
2019-02-16T13:30:01.414Z,5.43
2019-02-16T13:32:48.070Z,6.60
2019-02-16T13:35:34.714Z,5.93
2019-02-16T13:38:21.359Z,5.63
2019-02-16T13:41:27.472Z,6.07
2019-02-16T13:44:14.095Z,6.57
2019-02-16T13:47:00.732Z,7.20
2019-02-16T13:49:46.892Z,6.37
2019-02-16T13:52:33.537Z,7.23
2019-02-16T13:55:11.162Z,7.83
2019-02-16T13:58:00.720Z,7.97
2019-02-16T14:00:33.590Z,6.60
2019-02-16T14:03:20.224Z,6.93
2019-02-16T14:06:06.884Z,6.87
2019-02-16T14:09:02.381Z,7.37
2019-02-16T14:11:54.914Z,8.70
2019-02-16T14:14:59.858Z,7.97
2019-02-16T14:17:34.343Z,7.40
2019-02-16T14:20:01.414Z,7.70
2019-02-16T14:22:28.517Z,7.20
2019-02-16T14:24:57.907Z,7.23
2019-02-16T14:27:24.942Z,9.07
2019-02-16T14:29:52.000Z,10.33
2019-02-16T14:32:19.055Z,7.90
2019-02-16T14:34:46.099Z,7.43
2019-02-16T14:37:31.148Z,7.53
2019-02-16T14:39:58.217Z,7.40
2019-02-16T14:42:25.251Z,8.50
2019-02-16T14:44:52.332Z,8.07
2019-02-16T14:47:19.399Z,7.50
2019-02-16T14:49:46.475Z,8.37
2019-02-16T14:52:13.563Z,7.77
2019-02-16T14:54:40.615Z,7.00
2019-02-16T14:57:07.665Z,7.50
2019-02-16T14:59:34.710Z,6.77
2019-02-16T15:02:01.781Z,6.40
2019-02-16T15:04:28.857Z,7.57
2019-02-16T15:06:55.897Z,8.60
2019-02-16T15:09:22.987Z,7.70
2019-02-16T15:11:50.081Z,7.17
2019-02-16T15:14:17.132Z,8.77
2019-02-16T15:16:44.181Z,7.73
2019-02-16T15:19:11.224Z,8.27
2019-02-16T15:21:38.300Z,10.47
2019-02-16T15:24:05.363Z,8.47
2019-02-16T15:26:32.454Z,8.60
2019-02-16T15:28:59.540Z,8.10
2019-02-16T15:31:26.641Z,7.93
2019-02-16T15:33:53.738Z,7.87
2019-02-16T15:36:23.973Z,7.10
2019-02-16T15:38:55.956Z,7.87
2019-02-16T15:41:23.021Z,8.20
2019-02-16T15:43:50.072Z,8.03
2019-02-16T15:46:17.166Z,8.00
2019-02-16T15:48:57.181Z,8.93
2019-02-16T15:51:24.296Z,8.20
2019-02-16T15:53:51.381Z,8.00
2019-02-16T15:56:18.483Z,8.23
2019-02-16T15:58:45.551Z,7.87
2019-02-16T16:01:12.622Z,7.70
2019-02-16T16:03:39.868Z,7.43
2019-02-16T16:06:06.955Z,7.67
2019-02-16T16:08:53.731Z,7.50
2019-02-16T16:11:40.417Z,7.00
2019-02-16T16:14:27.137Z,7.13
2019-02-16T16:17:13.813Z,6.90
2019-02-16T16:19:50.659Z,7.50
2019-02-16T16:22:28.663Z,8.40
2019-02-16T16:25:15.386Z,7.25
2019-02-16T16:28:02.087Z,8.50
2019-02-16T16:30:48.814Z,8.68
2019-02-16T16:33:35.469Z,7.35
2019-02-16T16:36:12.468Z,8.33
2019-02-16T16:38:59.144Z,8.68
2019-02-16T16:41:45.821Z,7.85
2019-02-16T16:44:32.502Z,7.00
2019-02-16T16:47:09.971Z,9.00
2019-02-16T16:50:02.729Z,7.87
2019-02-16T16:52:47.396Z,8.45
2019-02-16T16:55:22.084Z,9.05
2019-02-16T16:58:08.766Z,8.68
2019-02-16T17:00:57.131Z,8.75
2019-02-16T17:03:43.816Z,9.85
2019-02-16T17:06:26.003Z,8.78
2019-02-16T17:09:16.055Z,8.20
2019-02-16T17:11:58.667Z,9.43
2019-02-16T17:14:37.900Z,32.50
2019-02-16T17:17:27.657Z,17.77
2019-02-16T17:20:04.812Z,13.40
2019-02-16T17:22:51.480Z,16.20
2019-02-16T17:25:29.897Z,19.00
2019-02-16T17:28:14.980Z,14.25
2019-02-16T17:30:50.818Z,14.55
2019-02-16T17:33:49.847Z,14.93
2019-02-16T17:36:35.250Z,26.45
2019-02-16T17:39:11.145Z,25.37
2019-02-16T17:41:57.865Z,22.58
2019-02-16T17:44:44.546Z,19.10
2019-02-16T17:47:28.620Z,18.23
2019-02-16T17:50:14.192Z,18.70
2019-02-16T17:53:09.569Z,17.57
2019-02-16T17:55:55.186Z,18.32
2019-02-16T17:58:27.035Z,19.05
2019-02-16T18:01:13.764Z,18.52
2019-02-16T18:04:06.508Z,17.73
2019-02-16T18:06:42.195Z,19.75
2019-02-16T18:09:27.490Z,19.17
2019-02-16T18:12:20.788Z,17.62
2019-02-16T18:15:06.184Z,18.77
2019-02-16T18:18:06.058Z,21.00
2019-02-16T18:20:48.643Z,17.27
2019-02-16T18:23:35.338Z,16.25
2019-02-16T18:26:25.065Z,15.55
2019-02-16T18:29:10.103Z,16.30
2019-02-16T18:32:08.790Z,16.00
2019-02-16T18:34:45.291Z,14.28
2019-02-16T18:37:30.409Z,14.18
2019-02-16T18:40:10.047Z,17.73
2019-02-16T18:42:55.939Z,18.82
2019-02-16T18:45:55.247Z,18.00
2019-02-16T18:48:48.056Z,15.50
2019-02-16T18:51:27.703Z,17.87
2019-02-16T18:54:13.361Z,17.30
2019-02-16T18:56:53.233Z,16.77
2019-02-16T18:59:51.736Z,17.02
2019-02-16T19:02:44.185Z,18.60
2019-02-16T19:05:30.023Z,17.82
2019-02-16T19:08:15.355Z,18.17
2019-02-16T19:10:49.653Z,19.80
2019-02-16T19:13:36.472Z,18.73
2019-02-16T19:16:27.309Z,18.20
2019-02-16T19:19:23.192Z,17.10
2019-02-16T19:22:22.258Z,15.10
2019-02-16T19:25:04.642Z,17.95
2019-02-16T19:27:54.153Z,18.57
2019-02-16T19:30:30.316Z,17.62
2019-02-16T19:33:17.255Z,16.90
2019-02-16T19:36:05.590Z,16.05
2019-02-16T19:39:07.468Z,18.55
2019-02-16T19:41:55.361Z,17.37
2019-02-16T19:44:42.107Z,20.25
2019-02-16T19:47:27.487Z,24.02
2019-02-16T19:50:23.479Z,22.90
2019-02-16T19:52:59.187Z,22.48
2019-02-16T19:55:35.647Z,23.15
2019-02-16T19:58:21.114Z,27.17
2019-02-16T20:01:09.587Z,31.27
2019-02-16T20:03:59.946Z,33.20
2019-02-16T20:06:37.941Z,53.87
2019-02-16T20:09:18.843Z,50.38
2019-02-16T20:12:14.654Z,41.37
2019-02-16T20:15:07.277Z,35.58
2019-02-16T20:18:00.316Z,34.53
2019-02-16T20:20:47.360Z,30.10
2019-02-16T20:23:29.500Z,29.77
2019-02-16T20:26:03.797Z,25.92
2019-02-16T20:28:50.557Z,26.77
2019-02-16T20:31:45.453Z,24.87
2019-02-16T20:34:35.150Z,39.42
2019-02-16T20:37:21.891Z,41.45
2019-02-16T20:40:26.956Z,37.38
2019-02-16T20:43:12.393Z,31.80
2019-02-16T20:45:49.856Z,29.80
2019-02-16T20:48:58.576Z,27.98
2019-02-16T20:51:47.673Z,28.75
2019-02-16T20:54:34.605Z,28.32
2019-02-16T20:57:47.331Z,28.25
2019-02-16T21:00:23.921Z,27.67
2019-02-16T21:03:05.741Z,27.17
2019-02-16T21:05:51.732Z,27.37
2019-02-16T21:08:47.655Z,27.25
2019-02-16T21:11:28.275Z,27.75
2019-02-16T21:14:00.920Z,28.50
2019-02-16T21:16:44.615Z,28.50
2019-02-16T21:19:23.697Z,26.23
2019-02-16T21:22:08.793Z,27.35
2019-02-16T21:24:47.698Z,26.65
2019-02-16T21:27:39.231Z,27.75
2019-02-16T21:30:46.355Z,25.32
2019-02-16T21:33:39.053Z,26.75
2019-02-16T21:36:30.195Z,25.20
2019-02-16T21:39:21.803Z,26.82
2019-02-16T21:42:11.178Z,24.00
2019-02-16T21:44:58.212Z,23.83
2019-02-16T21:47:57.025Z,22.45
2019-02-16T21:50:40.563Z,20.43
2019-02-16T21:53:25.687Z,20.50
2019-02-16T21:56:01.400Z,20.72
2019-02-16T21:58:38.628Z,20.05
2019-02-16T22:01:30.962Z,17.82
2019-02-16T22:04:21.949Z,18.25
2019-02-16T22:07:14.666Z,21.48
2019-02-16T22:10:13.167Z,22.13
2019-02-16T22:13:01.592Z,25.37
2019-02-16T22:15:28.683Z,26.57
2019-02-16T22:17:56.307Z,26.95
2019-02-16T22:20:23.410Z,26.07
2019-02-16T22:22:50.518Z,28.45
2019-02-16T22:25:19.620Z,28.95
2019-02-16T22:27:46.612Z,24.02
2019-02-16T22:30:13.722Z,26.40
2019-02-16T22:32:40.807Z,24.80
2019-02-16T22:35:07.979Z,23.55
2019-02-16T22:37:35.070Z,21.45
2019-02-16T22:40:02.140Z,22.37
2019-02-16T22:42:29.294Z,20.88
2019-02-16T22:44:56.332Z,21.65
2019-02-16T22:47:23.407Z,20.23
2019-02-16T22:49:50.480Z,22.58
2019-02-16T22:52:17.524Z,20.35
2019-02-16T22:54:44.555Z,24.77
2019-02-16T22:57:11.610Z,24.37
2019-02-16T22:59:38.672Z,23.02
2019-02-16T23:02:05.830Z,21.00
2019-02-16T23:04:33.750Z,21.45
2019-02-16T23:07:00.798Z,21.45
2019-02-16T23:09:28.611Z,20.05
2019-02-16T23:11:55.727Z,17.87
2019-02-16T23:14:24.255Z,18.98
2019-02-16T23:16:51.439Z,17.45
2019-02-16T23:19:18.508Z,16.77
2019-02-16T23:21:45.519Z,16.15
2019-02-16T23:24:12.547Z,17.23
2019-02-16T23:26:39.586Z,16.80
2019-02-16T23:29:06.607Z,15.35
2019-02-16T23:31:33.645Z,18.45
2019-02-16T23:34:00.663Z,18.23
2019-02-16T23:36:27.694Z,17.87
2019-02-16T23:38:54.725Z,17.70
2019-02-16T23:41:21.746Z,16.40
2019-02-16T23:43:48.777Z,17.30
2019-02-16T23:46:15.816Z,15.93
2019-02-16T23:48:42.848Z,16.42
2019-02-16T23:51:09.916Z,16.42
2019-02-16T23:53:36.943Z,14.45
2019-02-16T23:56:03.983Z,16.27
2019-02-16T23:58:31.126Z,14.68
